sensor_id;sensor_type;location;lat;lon;timestamp;pressure;altitude;pressure_sealevel;temperature;humidity
31717;BME280;18301;51.076;17.046;2022-11-20T00:03:22;99891.78;;;-2.13;73.91
31717;BME280;18301;51.076;17.046;2022-11-20T00:08:24;99885.44;;;-2.08;73.39
31717;BME280;18301;51.076;17.046;2022-11-20T00:13:25;99872.22;;;-2.08;73.43
31717;BME280;18301;51.076;17.046;2022-11-20T00:18:27;99890.81;;;-2.11;72.88
31717;BME280;18301;51.076;17.046;2022-11-20T00:23:29;99895.72;;;-2.28;73.51
31717;BME280;18301;51.076;17.046;2022-11-20T00:28:30;99897.09;;;-2.44;73.93
31717;BME280;18301;51.076;17.046;2022-11-20T00:33:33;99893.53;;;-2.43;73.88
31717;BME280;18301;51.076;17.046;2022-11-20T00:38:35;99893.09;;;-2.28;73.96
31717;BME280;18301;51.076;17.046;2022-11-20T00:43:37;99892.81;;;-2.19;74.08
31717;BME280;18301;51.076;17.046;2022-11-20T00:48:39;99900.72;;;-2.17;74.17
31717;BME280;18301;51.076;17.046;2022-11-20T00:53:40;99893.72;;;-2.18;73.92
31717;BME280;18301;51.076;17.046;2022-11-20T00:58:43;99903.47;;;-2.22;73.37
31717;BME280;18301;51.076;17.046;2022-11-20T01:03:47;99908.84;;;-2.25;73.46
31717;BME280;18301;51.076;17.046;2022-11-20T01:08:51;99908.75;;;-2.22;73.04
31717;BME280;18301;51.076;17.046;2022-11-20T01:13:54;99901.75;;;-2.23;73.52
31717;BME280;18301;51.076;17.046;2022-11-20T01:18:59;99902.69;;;-2.24;73.19
31717;BME280;18301;51.076;17.046;2022-11-20T01:24:01;99904.50;;;-2.26;73.35
31717;BME280;18301;51.076;17.046;2022-11-20T01:29:04;99901.94;;;-2.29;73.19
31717;BME280;18301;51.076;17.046;2022-11-20T01:34:09;99898.38;;;-2.28;72.64
31717;BME280;18301;51.076;17.046;2022-11-20T01:39:22;99907.56;;;-2.41;73.06
31717;BME280;18301;51.076;17.046;2022-11-20T01:45:42;99906.03;;;-2.48;72.63
31717;BME280;18301;51.076;17.046;2022-11-20T01:50:26;99905.84;;;-2.73;73.56
31717;BME280;18301;51.076;17.046;2022-11-20T01:55:36;99903.38;;;-2.80;73.56
31717;BME280;18301;51.076;17.046;2022-11-20T02:00:40;99893.75;;;-2.82;73.71
31717;BME280;18301;51.076;17.046;2022-11-20T02:05:46;99887.28;;;-3.03;74.43
31717;BME280;18301;51.076;17.046;2022-11-20T02:10:50;99886.09;;;-2.91;74.08
31717;BME280;18301;51.076;17.046;2022-11-20T02:15:52;99888.41;;;-2.81;74.07
31717;BME280;18301;51.076;17.046;2022-11-20T02:20:59;99891.19;;;-2.85;74.10
31717;BME280;18301;51.076;17.046;2022-11-20T02:26:08;99889.31;;;-2.80;74.14
31717;BME280;18301;51.076;17.046;2022-11-20T02:31:11;99880.66;;;-2.85;74.50
31717;BME280;18301;51.076;17.046;2022-11-20T02:36:15;99878.59;;;-2.74;74.33
31717;BME280;18301;51.076;17.046;2022-11-20T02:41:17;99888.97;;;-2.68;73.77
31717;BME280;18301;51.076;17.046;2022-11-20T02:46:18;99897.78;;;-2.69;73.76
31717;BME280;18301;51.076;17.046;2022-11-20T02:51:20;99891.69;;;-2.71;73.80
31717;BME280;18301;51.076;17.046;2022-11-20T02:56:22;99890.94;;;-2.76;73.65
31717;BME280;18301;51.076;17.046;2022-11-20T03:01:23;99887.56;;;-2.81;73.72
31717;BME280;18301;51.076;17.046;2022-11-20T03:06:25;99884.81;;;-2.76;73.92
31717;BME280;18301;51.076;17.046;2022-11-20T03:11:27;99881.31;;;-2.77;73.90
31717;BME280;18301;51.076;17.046;2022-11-20T03:16:31;99878.75;;;-2.80;73.87
31717;BME280;18301;51.076;17.046;2022-11-20T03:21:33;99888.41;;;-2.81;74.02
31717;BME280;18301;51.076;17.046;2022-11-20T03:26:35;99877.91;;;-2.82;74.16
31717;BME280;18301;51.076;17.046;2022-11-20T03:31:38;99876.84;;;-2.75;73.47
31717;BME280;18301;51.076;17.046;2022-11-20T03:36:43;99876.75;;;-2.72;74.09
31717;BME280;18301;51.076;17.046;2022-11-20T03:41:44;99874.94;;;-2.70;73.86
31717;BME280;18301;51.076;17.046;2022-11-20T03:46:46;99876.81;;;-2.73;73.76
31717;BME280;18301;51.076;17.046;2022-11-20T03:51:47;99880.47;;;-2.79;73.34
31717;BME280;18301;51.076;17.046;2022-11-20T03:56:49;99889.16;;;-2.75;73.79
31717;BME280;18301;51.076;17.046;2022-11-20T04:01:50;99881.75;;;-2.94;73.30
31717;BME280;18301;51.076;17.046;2022-11-20T04:06:52;99882.78;;;-2.99;73.88
31717;BME280;18301;51.076;17.046;2022-11-20T04:11:53;99894.53;;;-3.11;73.49
31717;BME280;18301;51.076;17.046;2022-11-20T04:16:55;99892.03;;;-3.17;73.86
31717;BME280;18301;51.076;17.046;2022-11-20T04:21:56;99900.78;;;-3.14;73.61
31717;BME280;18301;51.076;17.046;2022-11-20T04:26:57;99894.53;;;-3.11;74.07
31717;BME280;18301;51.076;17.046;2022-11-20T04:31:59;99887.53;;;-3.12;73.96
31717;BME280;18301;51.076;17.046;2022-11-20T04:37:01;99881.63;;;-3.22;74.01
31717;BME280;18301;51.076;17.046;2022-11-20T04:42:02;99877.91;;;-3.15;74.01
31717;BME280;18301;51.076;17.046;2022-11-20T04:47:24;99875.28;;;-3.15;73.58
31717;BME280;18301;51.076;17.046;2022-11-20T04:52:26;99869.59;;;-3.32;73.97
31717;BME280;18301;51.076;17.046;2022-11-20T04:57:28;99862.63;;;-3.36;73.69
31717;BME280;18301;51.076;17.046;2022-11-20T05:02:30;99870.28;;;-3.26;73.67
31717;BME280;18301;51.076;17.046;2022-11-20T05:07:32;99859.81;;;-3.29;73.71
31717;BME280;18301;51.076;17.046;2022-11-20T05:12:33;99857.28;;;-3.33;73.71
31717;BME280;18301;51.076;17.046;2022-11-20T05:17:35;99846.88;;;-3.39;73.27
31717;BME280;18301;51.076;17.046;2022-11-20T05:22:36;99844.13;;;-3.35;73.68
31717;BME280;18301;51.076;17.046;2022-11-20T05:27:38;99850.28;;;-3.34;74.02
31717;BME280;18301;51.076;17.046;2022-11-20T05:32:39;99855.88;;;-3.47;74.00
31717;BME280;18301;51.076;17.046;2022-11-20T05:37:41;99852.47;;;-3.52;74.34
31717;BME280;18301;51.076;17.046;2022-11-20T05:42:42;99841.03;;;-3.51;74.96
31717;BME280;18301;51.076;17.046;2022-11-20T05:47:44;99840.03;;;-3.47;74.77
31717;BME280;18301;51.076;17.046;2022-11-20T05:52:46;99838.16;;;-3.41;74.40
31717;BME280;18301;51.076;17.046;2022-11-20T05:57:48;99833.91;;;-3.47;74.19
31717;BME280;18301;51.076;17.046;2022-11-20T06:02:49;99837.28;;;-3.42;74.21
31717;BME280;18301;51.076;17.046;2022-11-20T06:07:51;99834.59;;;-3.40;74.23
31717;BME280;18301;51.076;17.046;2022-11-20T06:12:52;99829.41;;;-3.43;74.34
31717;BME280;18301;51.076;17.046;2022-11-20T06:17:54;99829.34;;;-3.40;74.08
31717;BME280;18301;51.076;17.046;2022-11-20T06:22:56;99824.13;;;-3.43;74.11
31717;BME280;18301;51.076;17.046;2022-11-20T06:27:57;99821.28;;;-3.36;74.38
31717;BME280;18301;51.076;17.046;2022-11-20T06:32:59;99813.50;;;-3.40;73.87
31717;BME280;18301;51.076;17.046;2022-11-20T06:38:00;99822.97;;;-3.33;74.33
31717;BME280;18301;51.076;17.046;2022-11-20T06:43:02;99813.44;;;-3.37;74.73
31717;BME280;18301;51.076;17.046;2022-11-20T06:48:03;99808.81;;;-3.29;74.69
31717;BME280;18301;51.076;17.046;2022-11-20T06:53:05;99816.41;;;-3.17;74.82
31717;BME280;18301;51.076;17.046;2022-11-20T06:58:06;99817.78;;;-3.04;74.11
31717;BME280;18301;51.076;17.046;2022-11-20T07:03:09;99831.47;;;-2.89;74.52
31717;BME280;18301;51.076;17.046;2022-11-20T07:08:11;99839.56;;;-2.95;73.67
31717;BME280;18301;51.076;17.046;2022-11-20T07:13:13;99833.28;;;-2.91;73.36
31717;BME280;18301;51.076;17.046;2022-11-20T07:18:15;99839.25;;;-2.85;73.64
31717;BME280;18301;51.076;17.046;2022-11-20T07:23:16;99825.41;;;-2.93;73.38
31717;BME280;18301;51.076;17.046;2022-11-20T07:28:18;99816.06;;;-2.73;73.50
31717;BME280;18301;51.076;17.046;2022-11-20T07:33:19;99820.31;;;-2.68;73.51
31717;BME280;18301;51.076;17.046;2022-11-20T07:38:21;99815.81;;;-2.66;73.43
31717;BME280;18301;51.076;17.046;2022-11-20T07:43:23;99815.75;;;-2.33;73.58
31717;BME280;18301;51.076;17.046;2022-11-20T07:48:25;99808.84;;;-2.09;73.68
31717;BME280;18301;51.076;17.046;2022-11-20T07:53:27;99799.66;;;-1.44;72.39
31717;BME280;18301;51.076;17.046;2022-11-20T07:58:29;99791.59;;;-1.41;71.37
31717;BME280;18301;51.076;17.046;2022-11-20T08:03:31;99784.56;;;-1.42;72.45
31717;BME280;18301;51.076;17.046;2022-11-20T08:08:32;99801.56;;;-1.23;71.36
31717;BME280;18301;51.076;17.046;2022-11-20T08:13:38;99791.50;;;-0.89;71.17
31717;BME280;18301;51.076;17.046;2022-11-20T08:18:58;99789.84;;;-0.45;71.15
31717;BME280;18301;51.076;17.046;2022-11-20T08:23:59;99777.97;;;-0.35;70.71
31717;BME280;18301;51.076;17.046;2022-11-20T08:29:01;99779.59;;;-0.31;69.94
31717;BME280;18301;51.076;17.046;2022-11-20T08:34:02;99770.00;;;0.09;70.24
31717;BME280;18301;51.076;17.046;2022-11-20T08:39:12;99761.25;;;0.07;69.84
31717;BME280;18301;51.076;17.046;2022-11-20T08:44:14;99766.34;;;0.34;69.86
31717;BME280;18301;51.076;17.046;2022-11-20T08:49:15;99757.47;;;0.55;69.03
31717;BME280;18301;51.076;17.046;2022-11-20T08:54:17;99768.81;;;1.00;69.08
31717;BME280;18301;51.076;17.046;2022-11-20T08:59:21;99770.78;;;1.15;68.07
31717;BME280;18301;51.076;17.046;2022-11-20T09:04:42;99767.00;;;1.21;67.49
31717;BME280;18301;51.076;17.046;2022-11-20T09:09:43;99757.94;;;1.25;66.73
31717;BME280;18301;51.076;17.046;2022-11-20T09:14:46;99753.03;;;1.15;66.80
31717;BME280;18301;51.076;17.046;2022-11-20T09:19:55;99764.09;;;1.06;66.93
31717;BME280;18301;51.076;17.046;2022-11-20T09:24:56;99752.28;;;0.93;66.69
31717;BME280;18301;51.076;17.046;2022-11-20T09:29:57;99751.19;;;1.18;65.91
31717;BME280;18301;51.076;17.046;2022-11-20T09:34:59;99738.03;;;1.33;65.68
31717;BME280;18301;51.076;17.046;2022-11-20T09:40:06;99744.00;;;1.38;65.27
31717;BME280;18301;51.076;17.046;2022-11-20T09:45:23;99731.63;;;1.56;64.44
31717;BME280;18301;51.076;17.046;2022-11-20T09:50:36;99719.44;;;1.52;63.71
31717;BME280;18301;51.076;17.046;2022-11-20T09:55:42;99716.69;;;1.73;63.42
31717;BME280;18301;51.076;17.046;2022-11-20T10:00:44;99718.16;;;1.78;63.11
31717;BME280;18301;51.076;17.046;2022-11-20T10:05:49;99710.34;;;1.56;63.20
31717;BME280;18301;51.076;17.046;2022-11-20T10:10:59;99711.81;;;1.64;63.04
31717;BME280;18301;51.076;17.046;2022-11-20T10:27:00;99692.91;;;1.87;63.62
31717;BME280;18301;51.076;17.046;2022-11-20T10:32:30;99688.13;;;1.94;64.43
31717;BME280;18301;51.076;17.046;2022-11-20T10:37:35;99681.56;;;1.83;62.74
31717;BME280;18301;51.076;17.046;2022-11-20T10:42:47;99675.84;;;1.74;63.22
31717;BME280;18301;51.076;17.046;2022-11-20T10:48:10;99677.25;;;1.81;62.40
31717;BME280;18301;51.076;17.046;2022-11-20T10:53:24;99662.97;;;2.01;61.57
31717;BME280;18301;51.076;17.046;2022-11-20T10:58:44;99655.97;;;1.81;61.84
31717;BME280;18301;51.076;17.046;2022-11-20T11:03:48;99656.31;;;2.10;61.74
31717;BME280;18301;51.076;17.046;2022-11-20T11:08:50;99662.19;;;2.16;61.57
31717;BME280;18301;51.076;17.046;2022-11-20T11:13:53;99652.56;;;2.14;61.61
31717;BME280;18301;51.076;17.046;2022-11-20T11:19:11;99644.63;;;2.47;60.49
31717;BME280;18301;51.076;17.046;2022-11-20T11:29:44;99635.72;;;2.64;59.48
31717;BME280;18301;51.076;17.046;2022-11-20T11:35:01;99622.47;;;2.46;59.50
31717;BME280;18301;51.076;17.046;2022-11-20T11:40:04;99612.56;;;2.48;59.75
31717;BME280;18301;51.076;17.046;2022-11-20T11:45:27;99613.03;;;2.57;59.08
31717;BME280;18301;51.076;17.046;2022-11-20T11:50:29;99613.72;;;2.60;59.47
31717;BME280;18301;51.076;17.046;2022-11-20T12:00:41;99587.06;;;3.09;59.22
31717;BME280;18301;51.076;17.046;2022-11-20T12:05:49;99582.97;;;3.96;58.77
31717;BME280;18301;51.076;17.046;2022-11-20T12:11:06;99588.97;;;3.69;57.15
31717;BME280;18301;51.076;17.046;2022-11-20T12:16:14;99584.88;;;3.47;58.19
31717;BME280;18301;51.076;17.046;2022-11-20T12:48:03;99578.09;;;2.94;59.85
31717;BME280;18301;51.076;17.046;2022-11-20T12:58:44;99564.53;;;3.15;60.35
31717;BME280;18301;51.076;17.046;2022-11-20T13:03:50;99544.75;;;2.71;60.38
31717;BME280;18301;51.076;17.046;2022-11-20T13:08:55;99544.16;;;2.66;61.33
31717;BME280;18301;51.076;17.046;2022-11-20T13:14:03;99536.44;;;2.62;61.37
31717;BME280;18301;51.076;17.046;2022-11-20T13:19:12;99537.09;;;2.49;60.94
31717;BME280;18301;51.076;17.046;2022-11-20T13:29:25;99524.88;;;2.77;59.42
31717;BME280;18301;51.076;17.046;2022-11-20T13:34:27;99511.50;;;2.94;59.62
31717;BME280;18301;51.076;17.046;2022-11-20T13:39:33;99509.16;;;2.88;58.97
31717;BME280;18301;51.076;17.046;2022-11-20T13:44:42;99500.66;;;2.66;59.08
31717;BME280;18301;51.076;17.046;2022-11-20T13:49:45;99504.47;;;2.62;59.39
31717;BME280;18301;51.076;17.046;2022-11-20T13:54:58;99497.91;;;2.67;59.37
31717;BME280;18301;51.076;17.046;2022-11-20T14:05:22;99497.03;;;2.35;60.24
31717;BME280;18301;51.076;17.046;2022-11-20T14:10:29;99486.88;;;2.26;60.09
31717;BME280;18301;51.076;17.046;2022-11-20T14:15:33;99483.97;;;2.30;61.09
31717;BME280;18301;51.076;17.046;2022-11-20T14:20:38;99482.50;;;2.25;61.29
31717;BME280;18301;51.076;17.046;2022-11-20T14:25:44;99465.75;;;2.23;61.67
31717;BME280;18301;51.076;17.046;2022-11-20T14:30:47;99460.06;;;2.13;62.17
31717;BME280;18301;51.076;17.046;2022-11-20T14:35:51;99475.53;;;2.06;61.69
31717;BME280;18301;51.076;17.046;2022-11-20T14:40:53;99466.91;;;2.01;63.10
31717;BME280;18301;51.076;17.046;2022-11-20T14:46:01;99475.84;;;2.00;63.22
31717;BME280;18301;51.076;17.046;2022-11-20T14:51:03;99476.00;;;1.97;63.72
31717;BME280;18301;51.076;17.046;2022-11-20T14:56:05;99458.63;;;1.90;63.75
31717;BME280;18301;51.076;17.046;2022-11-20T15:01:07;99452.94;;;1.80;64.44
31717;BME280;18301;51.076;17.046;2022-11-20T15:06:12;99457.03;;;1.70;65.16
31717;BME280;18301;51.076;17.046;2022-11-20T15:11:25;99459.34;;;1.60;65.68
31717;BME280;18301;51.076;17.046;2022-11-20T15:16:29;99465.28;;;1.48;65.81
31717;BME280;18301;51.076;17.046;2022-11-20T15:21:31;99462.06;;;1.42;66.18
31717;BME280;18301;51.076;17.046;2022-11-20T15:26:34;99451.19;;;1.29;66.76
31717;BME280;18301;51.076;17.046;2022-11-20T15:31:36;99467.22;;;1.27;66.76
31717;BME280;18301;51.076;17.046;2022-11-20T15:36:38;99462.59;;;1.13;67.50
31717;BME280;18301;51.076;17.046;2022-11-20T15:41:40;99464.66;;;1.08;67.55
31717;BME280;18301;51.076;17.046;2022-11-20T15:46:42;99464.25;;;0.99;68.05
31717;BME280;18301;51.076;17.046;2022-11-20T15:51:47;99463.97;;;0.86;67.78
31717;BME280;18301;51.076;17.046;2022-11-20T15:56:49;99458.81;;;0.83;68.21
31717;BME280;18301;51.076;17.046;2022-11-20T16:01:53;99470.31;;;0.83;68.23
31717;BME280;18301;51.076;17.046;2022-11-20T16:06:55;99458.94;;;0.80;68.63
31717;BME280;18301;51.076;17.046;2022-11-20T16:11:56;99455.22;;;0.84;68.58
31717;BME280;18301;51.076;17.046;2022-11-20T16:17:00;99456.09;;;0.84;68.74
31717;BME280;18301;51.076;17.046;2022-11-20T16:22:03;99444.59;;;0.84;69.02
31717;BME280;18301;51.076;17.046;2022-11-20T16:27:04;99443.81;;;0.82;68.81
31717;BME280;18301;51.076;17.046;2022-11-20T16:32:06;99446.47;;;0.82;69.04
31717;BME280;18301;51.076;17.046;2022-11-20T16:37:07;99442.97;;;0.81;69.04
31717;BME280;18301;51.076;17.046;2022-11-20T16:42:09;99447.72;;;0.75;69.05
31717;BME280;18301;51.076;17.046;2022-11-20T16:47:10;99444.56;;;0.66;69.48
31717;BME280;18301;51.076;17.046;2022-11-20T16:52:12;99447.50;;;0.60;69.41
31717;BME280;18301;51.076;17.046;2022-11-20T16:57:13;99447.50;;;0.60;69.62
31717;BME280;18301;51.076;17.046;2022-11-20T17:02:15;99447.75;;;0.56;69.66
31717;BME280;18301;51.076;17.046;2022-11-20T17:07:16;99451.84;;;0.44;70.11
31717;BME280;18301;51.076;17.046;2022-11-20T17:12:18;99448.03;;;0.31;70.10
31717;BME280;18301;51.076;17.046;2022-11-20T17:17:19;99441.94;;;0.29;70.39
31717;BME280;18301;51.076;17.046;2022-11-20T17:22:21;99445.38;;;0.31;70.92
31717;BME280;18301;51.076;17.046;2022-11-20T17:27:22;99447.03;;;0.33;70.91
31717;BME280;18301;51.076;17.046;2022-11-20T17:32:24;99465.59;;;0.33;71.44
31717;BME280;18301;51.076;17.046;2022-11-20T17:37:25;99462.53;;;0.23;71.59
31717;BME280;18301;51.076;17.046;2022-11-20T17:42:27;99471.34;;;0.24;71.91
31717;BME280;18301;51.076;17.046;2022-11-20T17:47:30;99469.69;;;0.21;71.73
31717;BME280;18301;51.076;17.046;2022-11-20T17:52:32;99469.69;;;0.21;72.11
31717;BME280;18301;51.076;17.046;2022-11-20T17:57:33;99474.50;;;0.13;72.48
31717;BME280;18301;51.076;17.046;2022-11-20T18:02:54;99461.38;;;0.10;72.73
31717;BME280;18301;51.076;17.046;2022-11-20T18:07:55;99454.34;;;0.09;72.88
31717;BME280;18301;51.076;17.046;2022-11-20T18:12:57;99441.16;;;0.08;72.93
31717;BME280;18301;51.076;17.046;2022-11-20T18:17:58;99446.09;;;0.15;73.05
31717;BME280;18301;51.076;17.046;2022-11-20T18:23:00;99437.84;;;0.21;73.55
31717;BME280;18301;51.076;17.046;2022-11-20T18:28:02;99439.06;;;0.14;73.46
31717;BME280;18301;51.076;17.046;2022-11-20T18:33:03;99440.34;;;0.06;73.42
31717;BME280;18301;51.076;17.046;2022-11-20T18:38:05;99455.69;;;-0.01;73.34
31717;BME280;18301;51.076;17.046;2022-11-20T18:43:09;99452.41;;;-0.06;72.96
31717;BME280;18301;51.076;17.046;2022-11-20T18:48:30;99463.44;;;-0.15;73.35
31717;BME280;18301;51.076;17.046;2022-11-20T18:53:35;99466.13;;;-0.17;73.38
31717;BME280;18301;51.076;17.046;2022-11-20T18:58:36;99469.78;;;-0.19;73.54
31717;BME280;18301;51.076;17.046;2022-11-20T19:03:39;99460.25;;;-0.24;73.74
31717;BME280;18301;51.076;17.046;2022-11-20T19:08:41;99454.63;;;-0.36;73.76
31717;BME280;18301;51.076;17.046;2022-11-20T19:13:42;99455.91;;;-0.45;73.90
31717;BME280;18301;51.076;17.046;2022-11-20T19:18:44;99454.47;;;-0.52;74.19
31717;BME280;18301;51.076;17.046;2022-11-20T19:23:51;99459.69;;;-0.51;74.89
31717;BME280;18301;51.076;17.046;2022-11-20T19:28:53;99463.91;;;-0.47;74.99
31717;BME280;18301;51.076;17.046;2022-11-20T19:33:59;99469.19;;;-0.47;74.56
31717;BME280;18301;51.076;17.046;2022-11-20T19:39:03;99463.44;;;-0.36;75.02
31717;BME280;18301;51.076;17.046;2022-11-20T19:44:13;99453.78;;;-0.37;74.61
31717;BME280;18301;51.076;17.046;2022-11-20T19:49:14;99469.41;;;-0.31;74.93
31717;BME280;18301;51.076;17.046;2022-11-20T19:54:16;99471.03;;;-0.28;74.81
31717;BME280;18301;51.076;17.046;2022-11-20T19:59:17;99468.81;;;-0.37;75.25
31717;BME280;18301;51.076;17.046;2022-11-20T20:04:19;99471.66;;;-0.42;75.80
31717;BME280;18301;51.076;17.046;2022-11-20T20:09:20;99485.81;;;-0.22;75.88
31717;BME280;18301;51.076;17.046;2022-11-20T20:14:24;99509.09;;;-0.29;75.68
31717;BME280;18301;51.076;17.046;2022-11-20T20:19:26;99510.94;;;-0.31;76.32
31717;BME280;18301;51.076;17.046;2022-11-20T20:24:28;99492.34;;;-0.30;76.22
31717;BME280;18301;51.076;17.046;2022-11-20T20:29:29;99492.06;;;-0.44;76.23
31717;BME280;18301;51.076;17.046;2022-11-20T20:34:30;99493.81;;;-0.43;76.40
31717;BME280;18301;51.076;17.046;2022-11-20T20:39:32;99488.88;;;-0.32;75.76
31717;BME280;18301;51.076;17.046;2022-11-20T20:44:33;99485.19;;;-0.28;75.74
31717;BME280;18301;51.076;17.046;2022-11-20T20:49:54;99473.97;;;-0.34;75.49
31717;BME280;18301;51.076;17.046;2022-11-20T20:54:55;99476.56;;;-0.33;75.46
31717;BME280;18301;51.076;17.046;2022-11-20T20:59:57;99476.69;;;-0.36;75.32
31717;BME280;18301;51.076;17.046;2022-11-20T21:04:58;99459.81;;;-0.33;75.31
31717;BME280;18301;51.076;17.046;2022-11-20T21:10:00;99461.75;;;-0.37;75.08
31717;BME280;18301;51.076;17.046;2022-11-20T21:15:01;99456.56;;;-0.40;75.47
31717;BME280;18301;51.076;17.046;2022-11-20T21:20:03;99472.53;;;-0.41;75.53
31717;BME280;18301;51.076;17.046;2022-11-20T21:25:24;99473.66;;;-0.47;75.07
31717;BME280;18301;51.076;17.046;2022-11-20T21:30:26;99480.06;;;-0.53;75.08
31717;BME280;18301;51.076;17.046;2022-11-20T21:35:27;99468.63;;;-0.53;75.25
31717;BME280;18301;51.076;17.046;2022-11-20T21:40:29;99468.63;;;-0.53;75.34
31717;BME280;18301;51.076;17.046;2022-11-20T21:45:30;99465.06;;;-0.52;75.77
31717;BME280;18301;51.076;17.046;2022-11-20T21:50:33;99459.13;;;-0.59;75.43
31717;BME280;18301;51.076;17.046;2022-11-20T21:55:34;99465.84;;;-0.71;75.27
31717;BME280;18301;51.076;17.046;2022-11-20T22:00:36;99450.06;;;-0.94;75.43
31717;BME280;18301;51.076;17.046;2022-11-20T22:05:38;99456.41;;;-0.98;75.58
31717;BME280;18301;51.076;17.046;2022-11-20T22:10:39;99447.91;;;-1.06;75.78
31717;BME280;18301;51.076;17.046;2022-11-20T22:15:40;99448.59;;;-1.01;76.10
31717;BME280;18301;51.076;17.046;2022-11-20T22:21:04;99443.31;;;-1.01;75.87
31717;BME280;18301;51.076;17.046;2022-11-20T22:26:15;99439.16;;;-1.08;75.90
31717;BME280;18301;51.076;17.046;2022-11-20T22:31:18;99443.13;;;-1.19;75.89
31717;BME280;18301;51.076;17.046;2022-11-20T22:36:25;99459.25;;;-1.25;74.84
31717;BME280;18301;51.076;17.046;2022-11-20T22:41:29;99452.50;;;-1.32;75.13
31717;BME280;18301;51.076;17.046;2022-11-20T22:46:33;99454.59;;;-1.40;75.24
31717;BME280;18301;51.076;17.046;2022-11-20T22:51:37;99447.59;;;-1.41;75.14
31717;BME280;18301;51.076;17.046;2022-11-20T22:56:39;99444.81;;;-1.38;75.25
31717;BME280;18301;51.076;17.046;2022-11-20T23:01:41;99459.88;;;-1.40;75.21
31717;BME280;18301;51.076;17.046;2022-11-20T23:06:42;99444.25;;;-1.46;75.05
31717;BME280;18301;51.076;17.046;2022-11-20T23:11:44;99437.50;;;-1.53;74.99
31717;BME280;18301;51.076;17.046;2022-11-20T23:16:45;99426.91;;;-1.53;75.64
31717;BME280;18301;51.076;17.046;2022-11-20T23:21:47;99424.63;;;-1.63;74.99
31717;BME280;18301;51.076;17.046;2022-11-20T23:26:48;99405.13;;;-1.60;75.42
31717;BME280;18301;51.076;17.046;2022-11-20T23:31:50;99407.09;;;-1.65;75.17
31717;BME280;18301;51.076;17.046;2022-11-20T23:36:51;99399.28;;;-1.68;75.60
31717;BME280;18301;51.076;17.046;2022-11-20T23:41:53;99384.94;;;-1.63;75.03
31717;BME280;18301;51.076;17.046;2022-11-20T23:46:54;99389.09;;;-1.79;75.44
31717;BME280;18301;51.076;17.046;2022-11-20T23:51:56;99407.75;;;-1.82;75.66
31717;BME280;18301;51.076;17.046;2022-11-20T23:56:57;99405.09;;;-1.82;75.78
